Time;durP1;ratioP1;P1;durP2;ratioP2;P2;SDS_P1;SDS_P2;PMS_P1;PMS_P2;Temp;Humidity;BMP_temperature;BMP_pressure;BME280_temperature;BME280_humidity;BME280_pressure;Samples;Min_cycle;Max_cycle;Signal;HPM_P1;HPM_P2
2022/08/06 00:00:48;;;;;;;3.60;2.50;;;18.20;97.30;;;;;;5056237;28;20202;-86
2022/08/06 00:03:14;;;;;;;3.83;1.63;;;18.20;97.30;;;;;;5056935;28;20182;-86
2022/08/06 00:05:39;;;;;;;3.73;2.17;;;18.10;97.30;;;;;;5085109;28;20174;-86
2022/08/06 00:08:05;;;;;;;1.97;1.67;;;18.10;97.30;;;;;;5081181;28;20174;-87
2022/08/06 00:10:30;;;;;;;3.10;2.67;;;18.10;97.30;;;;;;5079601;28;20182;-86
2022/08/06 00:12:59;;;;;;;3.03;1.90;;;18.10;97.30;;;;;;5080516;28;20591;-87
2022/08/06 00:15:24;;;;;;;1.97;1.50;;;18.10;97.30;;;;;;5079052;28;20686;-87
2022/08/06 00:17:50;;;;;;;2.90;1.83;;;18.10;97.30;;;;;;5081089;28;20478;-86
2022/08/06 00:20:15;;;;;;;1.43;1.37;;;18.00;97.30;;;;;;5064828;28;20199;-86
2022/08/06 00:22:42;;;;;;;2.70;2.37;;;18.00;97.30;;;;;;5060943;28;20179;-87
2022/08/06 00:25:09;;;;;;;1.23;1.20;;;18.00;97.30;;;;;;5044143;28;20183;-86
2022/08/06 00:27:35;;;;;;;1.37;1.30;;;18.00;97.30;;;;;;5092985;28;20459;-85
2022/08/06 00:30:01;;;;;;;1.87;1.77;;;17.90;97.30;;;;;;5091506;28;20825;-86
2022/08/06 00:32:27;;;;;;;1.87;1.43;;;17.90;97.30;;;;;;5075001;28;20413;-87
2022/08/06 00:34:52;;;;;;;1.23;1.20;;;17.90;97.30;;;;;;5073380;28;20223;-86
2022/08/06 00:37:18;;;;;;;2.50;1.67;;;17.80;97.30;;;;;;5072991;28;20661;-86
2022/08/06 00:39:43;;;;;;;0.97;0.90;;;17.80;97.30;;;;;;5072922;28;20198;-87
2022/08/06 00:42:09;;;;;;;1.40;1.30;;;17.70;97.30;;;;;;5073273;28;20193;-86
2022/08/06 00:44:35;;;;;;;1.10;0.87;;;17.50;97.30;;;;;;5086616;28;20189;-86
2022/08/06 00:47:01;;;;;;;1.17;1.10;;;17.50;97.30;;;;;;5072693;28;20187;-85
2022/08/06 00:49:26;;;;;;;1.50;1.40;;;17.40;97.30;;;;;;5058667;28;20217;-87
2022/08/06 00:51:52;;;;;;;1.20;1.10;;;17.30;95.60;;;;;;5064343;28;20879;-86
2022/08/06 00:54:19;;;;;;;1.10;1.00;;;17.30;93.90;;;;;;5092605;28;20201;-86
2022/08/06 00:56:45;;;;;;;1.03;0.93;;;17.20;93.90;;;;;;5076385;28;20196;-85
2022/08/06 00:59:11;;;;;;;1.00;0.90;;;17.20;92.70;;;;;;5066975;28;20442;-86
2022/08/06 01:01:37;;;;;;;0.90;0.90;;;17.20;92.10;;;;;;5060638;28;20183;-86
2022/08/06 01:04:02;;;;;;;0.90;0.90;;;17.10;91.90;;;;;;5055902;28;20186;-87
2022/08/06 01:06:28;;;;;;;1.10;1.00;;;17.10;92.10;;;;;;5071416;28;20183;-86
2022/08/06 01:08:53;;;;;;;1.63;1.10;;;17.10;91.80;;;;;;5086344;28;20194;-85
2022/08/06 01:11:19;;;;;;;0.80;0.80;;;17.00;91.90;;;;;;5072909;28;20179;-87
2022/08/06 01:13:45;;;;;;;1.40;1.30;;;17.00;92.20;;;;;;5072518;28;20280;-86
2022/08/06 01:16:17;;;;;;;1.00;1.00;;;17.00;92.40;;;;;;5064668;28;20199;-86
2022/08/06 01:19:20;;;;;;;1.47;1.37;;;17.00;92.40;;;;;;5067242;28;20202;-84
2022/08/06 01:22:00;;;;;;;0.87;0.83;;;16.90;92.40;;;;;;5056988;28;20781;-87
2022/08/06 01:24:36;;;;;;;1.17;1.10;;;16.90;92.60;;;;;;5093528;28;20430;-86
2022/08/06 01:27:20;;;;;;;0.90;0.90;;;16.80;92.90;;;;;;5077283;28;20420;-87
2022/08/06 01:29:54;;;;;;;1.43;1.40;;;16.80;93.20;;;;;;5051940;28;20840;-86
2022/08/06 01:32:35;;;;;;;1.33;1.30;;;16.80;93.30;;;;;;5053963;28;20416;-86
2022/08/06 01:35:06;;;;;;;1.40;1.20;;;16.80;93.60;;;;;;5073608;28;20476;-86
2022/08/06 01:38:00;;;;;;;1.20;1.10;;;16.80;93.60;;;;;;5083885;28;20452;-86
2022/08/06 01:40:34;;;;;;;2.70;1.17;;;16.70;93.40;;;;;;5053792;28;20676;-86
2022/08/06 01:43:01;;;;;;;1.63;1.20;;;16.70;93.50;;;;;;5074574;28;20439;-87
2022/08/06 01:45:31;;;;;;;1.10;1.00;;;16.60;93.30;;;;;;5075089;28;20483;-86
2022/08/06 01:48:03;;;;;;;1.10;1.10;;;16.60;93.70;;;;;;5089291;28;20519;-87
2022/08/06 01:50:37;;;;;;;1.20;1.10;;;16.60;93.60;;;;;;5080820;28;20968;-86
2022/08/06 01:53:05;;;;;;;1.60;1.10;;;16.50;93.90;;;;;;5087546;28;20417;-86
2022/08/06 01:55:36;;;;;;;1.10;1.00;;;16.50;94.00;;;;;;5071429;28;21004;-86
2022/08/06 01:58:05;;;;;;;10.63;1.60;;;16.40;94.20;;;;;;5072285;28;21093;-86
2022/08/06 02:00:35;;;;;;;1.20;1.00;;;16.40;94.30;;;;;;5084126;28;20431;-86
2022/08/06 02:03:07;;;;;;;0.97;0.93;;;16.40;94.40;;;;;;5073662;28;20422;-85
2022/08/06 02:05:35;;;;;;;1.47;1.33;;;16.40;94.40;;;;;;5071140;28;20941;-86
2022/08/06 02:08:03;;;;;;;1.40;1.40;;;16.30;94.70;;;;;;5069000;28;20552;-86
2022/08/06 02:10:32;;;;;;;1.67;1.63;;;16.30;94.70;;;;;;5063716;28;20430;-86
2022/08/06 02:13:01;;;;;;;1.30;1.20;;;16.30;94.50;;;;;;5061521;28;20420;-86
2022/08/06 02:15:28;;;;;;;1.37;1.30;;;16.30;94.50;;;;;;5091128;28;20512;-86
2022/08/06 02:18:00;;;;;;;1.37;1.27;;;16.20;94.60;;;;;;5076997;28;20822;-86
2022/08/06 02:20:31;;;;;;;1.10;1.03;;;16.20;94.50;;;;;;5090943;28;20417;-87
2022/08/06 02:22:59;;;;;;;1.30;1.20;;;16.20;94.50;;;;;;5080847;28;20783;-86
2022/08/06 02:25:26;;;;;;;2.80;1.97;;;16.20;94.30;;;;;;5067419;28;20457;-84
2022/08/06 02:27:53;;;;;;;1.93;1.43;;;16.10;94.50;;;;;;5085172;28;20472;-86
2022/08/06 02:30:20;;;;;;;1.10;1.00;;;16.10;94.50;;;;;;5070929;28;20475;-87
2022/08/06 02:32:45;;;;;;;1.73;1.30;;;16.10;94.80;;;;;;5063509;28;20780;-86
2022/08/06 02:35:12;;;;;;;1.60;1.20;;;16.10;94.90;;;;;;5079312;28;20471;-87
2022/08/06 02:38:02;;;;;;;1.07;1.07;;;16.10;95.00;;;;;;5082572;28;20195;-86
2022/08/06 02:40:34;;;;;;;2.20;1.27;;;16.00;95.00;;;;;;5074448;28;20938;-85
2022/08/06 02:43:15;;;;;;;1.57;1.53;;;16.00;95.10;;;;;;5081967;28;20476;-86
2022/08/06 02:45:46;;;;;;;1.10;1.03;;;16.00;95.20;;;;;;5077729;28;20421;-86
2022/08/06 02:48:27;;;;;;;1.60;1.50;;;16.00;95.60;;;;;;5077252;28;20866;-87
2022/08/06 02:50:56;;;;;;;0.90;0.83;;;16.00;95.20;;;;;;5080457;28;20969;-86
2022/08/06 02:53:26;;;;;;;1.20;1.20;;;16.00;95.40;;;;;;5071117;28;20556;-86
2022/08/06 02:56:08;;;;;;;9.20;1.10;;;16.00;95.50;;;;;;5070357;28;20471;-86
2022/08/06 02:58:41;;;;;;;1.10;1.00;;;15.90;95.60;;;;;;5090413;28;20436;-87
2022/08/06 03:01:11;;;;;;;1.17;1.07;;;15.90;95.70;;;;;;5089534;28;20440;-86
2022/08/06 03:03:40;;;;;;;1.33;1.33;;;15.90;95.80;;;;;;5090783;28;20431;-88
2022/08/06 03:06:08;;;;;;;1.00;1.00;;;15.80;96.10;;;;;;5073714;28;21057;-85
2022/08/06 03:08:35;;;;;;;2.10;1.40;;;15.80;96.40;;;;;;5080511;28;20463;-85
2022/08/06 03:11:02;;;;;;;0.90;0.90;;;15.80;96.10;;;;;;5068317;28;20422;-86
2022/08/06 03:13:28;;;;;;;1.10;1.00;;;15.80;96.40;;;;;;5060881;28;20501;-87
2022/08/06 03:15:57;;;;;;;1.10;1.00;;;15.70;96.50;;;;;;5070302;28;20546;-85
2022/08/06 03:18:24;;;;;;;1.00;0.97;;;15.70;96.70;;;;;;5083908;28;20545;-86
2022/08/06 03:20:50;;;;;;;1.10;1.00;;;15.70;96.70;;;;;;5077328;28;20474;-86
2022/08/06 03:23:17;;;;;;;0.90;0.87;;;15.60;96.90;;;;;;5077104;28;20416;-86
2022/08/06 03:25:44;;;;;;;1.17;1.10;;;15.60;97.10;;;;;;5083473;28;20929;-85
2022/08/06 03:28:12;;;;;;;1.20;1.10;;;15.60;97.00;;;;;;5083001;28;20417;-86
2022/08/06 03:30:39;;;;;;;1.77;1.10;;;15.50;97.30;;;;;;5050765;28;20429;-86
2022/08/06 03:33:09;;;;;;;3.10;1.50;;;15.50;97.30;;;;;;5035471;28;20402;-86
2022/08/06 03:35:36;;;;;;;1.63;1.37;;;15.40;97.30;;;;;;5070503;28;20464;-86
2022/08/06 03:38:02;;;;;;;1.33;1.30;;;15.40;97.30;;;;;;5088390;22;20589;-80
2022/08/06 03:40:30;;;;;;;1.30;1.20;;;15.40;97.30;;;;;;5098733;28;20435;-80
2022/08/06 03:42:56;;;;;;;1.57;1.37;;;15.30;97.30;;;;;;5089186;28;20488;-80
2022/08/06 03:45:24;;;;;;;1.40;1.30;;;15.30;97.30;;;;;;5067857;28;20452;-80
2022/08/06 03:47:54;;;;;;;1.33;1.33;;;15.30;97.30;;;;;;5085238;28;20203;-80
2022/08/06 03:50:32;;;;;;;1.97;1.50;;;15.20;97.30;;;;;;5087695;28;20436;-80
2022/08/06 03:53:02;;;;;;;0.90;0.90;;;15.20;97.30;;;;;;5074728;28;20482;-80
2022/08/06 03:55:31;;;;;;;3.97;1.57;;;15.20;97.30;;;;;;5093680;28;20932;-80
2022/08/06 03:58:00;;;;;;;2.40;1.93;;;15.20;97.30;;;;;;5084565;28;20449;-81
2022/08/06 04:00:31;;;;;;;3.87;1.57;;;15.20;97.30;;;;;;5087468;28;20417;-80
2022/08/06 04:02:59;;;;;;;2.07;1.77;;;15.10;97.30;;;;;;5068691;28;20575;-80
2022/08/06 04:05:27;;;;;;;1.13;1.10;;;15.20;97.30;;;;;;5094017;28;20829;-80
2022/08/06 04:08:00;;;;;;;1.47;1.37;;;15.20;97.30;;;;;;5085199;28;20439;-80
2022/08/06 04:10:48;;;;;;;2.90;1.77;;;15.20;97.30;;;;;;5094261;28;20472;-81
2022/08/06 04:13:16;;;;;;;1.50;1.43;;;15.20;97.30;;;;;;5096476;28;20416;-80
2022/08/06 04:15:42;;;;;;;1.30;1.00;;;15.10;97.30;;;;;;5098112;28;20420;-81
2022/08/06 04:18:17;;;;;;;1.10;1.00;;;15.10;97.30;;;;;;5091235;28;20412;-80
2022/08/06 04:20:46;;;;;;;1.30;0.90;;;15.10;97.30;;;;;;5081773;28;20408;-80
2022/08/06 04:23:12;;;;;;;1.30;1.10;;;15.10;97.30;;;;;;5088010;28;20490;-81
2022/08/06 04:25:45;;;;;;;5.83;1.90;;;15.10;97.30;;;;;;5094817;28;20476;-80
2022/08/06 04:28:12;;;;;;;1.30;1.20;;;15.10;97.30;;;;;;5098614;28;20412;-80
2022/08/06 04:30:39;;;;;;;0.97;0.90;;;15.10;97.30;;;;;;5099421;28;20420;-80
2022/08/06 04:33:09;;;;;;;1.10;1.00;;;15.10;97.30;;;;;;5081697;28;20432;-81
2022/08/06 04:35:38;;;;;;;1.13;1.07;;;15.10;97.30;;;;;;5097307;28;20431;-80
2022/08/06 04:38:04;;;;;;;1.03;0.93;;;15.10;97.30;;;;;;5080619;28;20460;-81
2022/08/06 04:40:30;;;;;;;1.10;1.10;;;15.10;97.30;;;;;;5097787;28;20869;-80
2022/08/06 04:42:56;;;;;;;2.00;1.37;;;15.10;97.30;;;;;;5098246;28;20242;-80
2022/08/06 04:45:23;;;;;;;1.07;1.03;;;15.10;97.30;;;;;;5081754;28;20423;-80
2022/08/06 04:47:49;;;;;;;6.90;1.90;;;15.10;97.30;;;;;;5097526;28;20507;-80
2022/08/06 04:50:15;;;;;;;1.00;0.97;;;15.10;97.30;;;;;;5093054;28;20441;-80
2022/08/06 04:52:40;;;;;;;1.10;1.00;;;15.20;97.30;;;;;;5078749;28;20418;-80
2022/08/06 04:55:06;;;;;;;1.13;1.03;;;15.20;97.30;;;;;;5084013;28;20246;-81
2022/08/06 04:57:32;;;;;;;1.57;1.20;;;15.20;97.30;;;;;;5081365;28;20303;-80
2022/08/06 04:59:58;;;;;;;1.23;1.00;;;15.20;97.30;;;;;;5079620;28;20484;-80
2022/08/06 05:02:23;;;;;;;4.77;1.17;;;15.20;97.30;;;;;;5072747;28;20417;-81
2022/08/06 05:04:55;;;;;;;1.30;1.20;;;15.20;97.30;;;;;;5084161;28;20186;-80
2022/08/06 05:07:25;;;;;;;1.27;1.20;;;15.20;97.30;;;;;;5099565;28;20178;-81
2022/08/06 05:09:51;;;;;;;2.30;1.10;;;15.20;97.30;;;;;;5110974;28;20833;-80
2022/08/06 05:12:19;;;;;;;5.60;1.53;;;15.20;97.30;;;;;;5078613;28;20478;-80
2022/08/06 05:14:52;;;;;;;1.57;1.40;;;15.20;97.30;;;;;;5077582;28;20886;-80
2022/08/06 05:17:20;;;;;;;1.30;1.20;;;15.20;97.30;;;;;;5092935;28;20460;-80
2022/08/06 05:20:00;;;;;;;1.20;1.10;;;15.20;97.30;;;;;;5089078;28;20596;-80
2022/08/06 05:22:28;;;;;;;0.97;0.97;;;15.30;97.30;;;;;;5095577;28;20952;-80
2022/08/06 05:24:54;;;;;;;1.83;1.10;;;15.30;97.30;;;;;;5096783;28;20424;-81
2022/08/06 05:27:20;;;;;;;1.00;1.00;;;15.20;97.30;;;;;;5067529;28;20420;-81
2022/08/06 05:29:46;;;;;;;1.50;1.40;;;15.20;97.30;;;;;;5087937;28;20995;-80
2022/08/06 05:32:12;;;;;;;1.50;1.20;;;15.20;97.30;;;;;;5083880;28;20710;-80
2022/08/06 05:34:37;;;;;;;1.10;1.00;;;15.20;97.30;;;;;;5097227;28;20188;-81
2022/08/06 05:37:03;;;;;;;1.00;1.00;;;15.20;97.30;;;;;;5095553;28;20487;-80
2022/08/06 05:39:29;;;;;;;1.30;1.27;;;15.20;97.30;;;;;;5078259;28;20242;-80
2022/08/06 05:41:54;;;;;;;1.53;1.27;;;15.20;97.30;;;;;;5081341;28;20200;-80
2022/08/06 05:44:20;;;;;;;1.40;1.30;;;15.20;97.30;;;;;;5096500;28;20171;-81
2022/08/06 05:46:54;;;;;;;2.17;1.33;;;15.20;97.30;;;;;;5097689;28;20170;-81
2022/08/06 05:49:22;;;;;;;1.57;1.47;;;15.20;97.30;;;;;;5094123;28;20219;-81
2022/08/06 05:52:13;;;;;;;1.07;1.03;;;15.20;97.30;;;;;;5090374;28;20449;-80
2022/08/06 05:55:03;;;;;;;1.77;1.43;;;15.20;97.30;;;;;;5077272;28;20421;-80
2022/08/06 05:57:44;;;;;;;1.33;1.33;;;15.20;97.30;;;;;;5076933;28;20476;-80
2022/08/06 06:00:13;;;;;;;1.07;1.00;;;15.30;97.30;;;;;;5083706;28;20432;-80
2022/08/06 06:02:44;;;;;;;1.20;1.07;;;15.30;97.30;;;;;;5097146;28;20423;-80
2022/08/06 06:05:11;;;;;;;1.87;1.10;;;15.30;97.30;;;;;;5096494;28;20413;-80
2022/08/06 06:07:38;;;;;;;1.60;1.50;;;15.30;97.30;;;;;;5092040;28;20861;-81
2022/08/06 06:10:05;;;;;;;1.30;1.30;;;15.30;97.30;;;;;;5084936;28;20642;-80
2022/08/06 06:12:33;;;;;;;0.90;0.90;;;15.40;97.30;;;;;;5096999;28;20846;-80
2022/08/06 06:15:02;;;;;;;2.10;1.50;;;15.40;97.30;;;;;;5089042;28;20428;-80
2022/08/06 06:17:36;;;;;;;11.87;1.87;;;15.40;97.30;;;;;;5091477;28;20450;-80
2022/08/06 06:20:35;;;;;;;1.97;1.57;;;15.50;97.30;;;;;;5084993;28;20433;-80
2022/08/06 06:23:17;;;;;;;1.10;0.83;;;15.60;97.30;;;;;;5084721;28;20401;-80
2022/08/06 06:25:56;;;;;;;0.87;0.83;;;15.60;97.30;;;;;;5092181;28;20413;-81
2022/08/06 06:28:24;;;;;;;1.57;1.47;;;15.70;97.30;;;;;;5088532;28;20433;-80
2022/08/06 06:31:11;;;;;;;1.10;1.10;;;15.70;97.30;;;;;;5093510;28;20413;-80
2022/08/06 06:33:47;;;;;;;1.50;1.40;;;15.80;97.30;;;;;;5092616;28;20410;-81
2022/08/06 06:36:28;;;;;;;1.40;1.30;;;15.90;97.30;;;;;;5074983;28;21047;-80
2022/08/06 06:39:04;;;;;;;1.80;1.27;;;15.90;97.30;;;;;;5083387;28;20456;-81
2022/08/06 06:41:37;;;;;;;1.07;1.03;;;15.90;97.30;;;;;;5081954;28;20447;-80
2022/08/06 06:44:32;;;;;;;1.03;0.93;;;16.00;97.30;;;;;;5074926;28;20482;-80
2022/08/06 06:47:04;;;;;;;1.23;1.13;;;16.00;97.30;;;;;;5062203;28;20507;-80
2022/08/06 06:49:47;;;;;;;0.90;0.90;;;16.10;97.20;;;;;;5094371;28;20436;-80
2022/08/06 06:52:27;;;;;;;1.40;1.30;;;16.10;97.00;;;;;;5082490;28;20503;-80
2022/08/06 06:55:26;;;;;;;1.60;1.10;;;16.20;97.30;;;;;;5091729;28;20424;-80
2022/08/06 06:57:57;;;;;;;1.37;1.27;;;16.20;97.00;;;;;;5085320;28;20517;-80
2022/08/06 07:00:24;;;;;;;0.93;0.90;;;16.30;97.00;;;;;;5094155;28;20423;-80
2022/08/06 07:02:52;;;;;;;1.00;1.00;;;16.30;96.50;;;;;;5080819;28;20436;-80
2022/08/06 07:05:21;;;;;;;0.80;0.80;;;16.40;96.90;;;;;;5085780;28;20484;-81
2022/08/06 07:07:49;;;;;;;1.00;0.90;;;16.40;96.40;;;;;;5087601;28;20418;-80
2022/08/06 07:10:17;;;;;;;1.13;1.03;;;16.40;96.30;;;;;;5074247;28;20464;-80
2022/08/06 07:12:45;;;;;;;1.03;1.00;;;16.50;96.30;;;;;;5077938;28;20424;-81
2022/08/06 07:15:14;;;;;;;1.23;1.13;;;16.50;95.80;;;;;;5094755;28;20424;-80
2022/08/06 07:17:40;;;;;;;1.67;1.37;;;16.60;95.60;;;;;;5064909;28;20448;-80
2022/08/06 07:20:08;;;;;;;2.03;1.10;;;16.60;95.70;;;;;;5094557;28;20437;-80
2022/08/06 07:22:36;;;;;;;1.17;1.13;;;16.70;95.40;;;;;;5094021;28;20427;-80
2022/08/06 07:25:05;;;;;;;7.03;1.23;;;16.70;95.60;;;;;;5077570;28;20812;-80
2022/08/06 07:27:35;;;;;;;2.13;2.03;;;16.80;95.60;;;;;;5089555;28;20452;-80
2022/08/06 07:30:01;;;;;;;1.20;1.10;;;16.80;95.20;;;;;;5086354;28;20432;-81
2022/08/06 07:32:31;;;;;;;1.77;1.60;;;16.90;94.80;;;;;;5065617;28;20849;-81
2022/08/06 07:34:57;;;;;;;1.53;1.43;;;16.90;94.40;;;;;;5096091;28;20435;-81
2022/08/06 07:37:25;;;;;;;1.20;1.10;;;17.00;94.70;;;;;;5095213;28;20472;-81
2022/08/06 07:39:53;;;;;;;1.00;0.80;;;17.00;94.50;;;;;;5094472;28;20488;-81
2022/08/06 07:42:20;;;;;;;2.53;1.03;;;17.20;93.70;;;;;;5077033;28;20418;-81
2022/08/06 07:44:50;;;;;;;1.00;0.90;;;17.20;93.20;;;;;;5089546;28;20428;-81
2022/08/06 07:47:21;;;;;;;1.70;0.97;;;17.30;93.10;;;;;;5078321;28;20448;-81
2022/08/06 07:49:52;;;;;;;1.00;1.00;;;17.40;92.20;;;;;;5095105;28;20455;-81
2022/08/06 07:52:18;;;;;;;0.83;0.80;;;17.40;92.20;;;;;;5083393;28;20439;-81
2022/08/06 07:54:45;;;;;;;1.50;1.40;;;17.40;91.90;;;;;;5099658;28;20475;-81
2022/08/06 07:57:13;;;;;;;0.90;0.90;;;17.50;91.10;;;;;;5099300;28;20456;-81
2022/08/06 07:59:40;;;;;;;0.90;0.90;;;17.50;91.60;;;;;;5099951;28;20491;-81
2022/08/06 08:02:07;;;;;;;0.80;0.80;;;17.60;90.70;;;;;;5089960;28;20421;-81
2022/08/06 08:07:19;;;;;;;0.90;0.90;;;17.70;90.30;;;;;;5097096;28;20431;-81
2022/08/06 08:09:45;;;;;;;1.60;1.10;;;17.70;90.30;;;;;;5101702;28;20432;-81
2022/08/06 08:12:17;;;;;;;2.10;1.20;;;17.70;90.40;;;;;;5081834;28;20443;-81
2022/08/06 08:14:47;;;;;;;3.17;1.67;;;17.80;89.90;;;;;;5092632;28;20413;-81
2022/08/06 08:17:14;;;;;;;1.13;1.10;;;17.70;89.70;;;;;;5078710;28;20460;-81
2022/08/06 08:19:40;;;;;;;0.93;0.87;;;17.70;87.20;;;;;;5079195;28;20433;-81
2022/08/06 08:22:15;;;;;;;2.10;1.30;;;17.80;86.20;;;;;;5093170;28;20421;-81
2022/08/06 08:24:44;;;;;;;0.97;0.90;;;17.90;87.40;;;;;;5099039;28;20188;-80
2022/08/06 08:27:10;;;;;;;3.90;2.03;;;18.00;87.50;;;;;;5098793;28;20435;-81
2022/08/06 08:29:38;;;;;;;1.10;1.10;;;18.10;88.20;;;;;;5099116;28;20424;-81
2022/08/06 08:32:04;;;;;;;1.60;1.20;;;18.20;88.50;;;;;;5086949;28;20424;-81
2022/08/06 08:34:31;;;;;;;1.60;0.90;;;18.30;88.10;;;;;;5090353;28;20452;-81
2022/08/06 08:36:56;;;;;;;1.10;1.00;;;18.40;87.10;;;;;;5094675;28;20483;-80
2022/08/06 08:39:22;;;;;;;1.10;1.00;;;18.40;86.60;;;;;;5095347;28;20459;-80
2022/08/06 08:42:00;;;;;;;1.20;1.10;;;18.50;86.00;;;;;;5095482;28;20272;-80
2022/08/06 08:44:27;;;;;;;0.90;0.80;;;18.50;86.80;;;;;;5095015;28;20257;-80
2022/08/06 08:46:57;;;;;;;1.07;1.03;;;18.50;86.00;;;;;;5095247;28;20957;-79
2022/08/06 08:49:37;;;;;;;1.10;1.00;;;18.50;86.10;;;;;;5094230;28;20984;-79
2022/08/06 08:52:06;;;;;;;1.10;0.97;;;18.60;85.50;;;;;;5094389;28;20490;-80
2022/08/06 08:54:34;;;;;;;0.80;0.70;;;18.70;85.10;;;;;;5095476;28;20513;-80
2022/08/06 08:57:02;;;;;;;1.40;1.33;;;18.80;85.20;;;;;;5096666;28;20467;-80
2022/08/06 08:59:28;;;;;;;1.60;1.40;;;18.90;85.40;;;;;;5093683;28;20494;-79
2022/08/06 09:01:54;;;;;;;1.20;1.10;;;18.90;85.70;;;;;;5094861;28;20421;-79
2022/08/06 09:04:20;;;;;;;2.90;1.20;;;19.00;85.50;;;;;;5095402;28;20183;-79
2022/08/06 09:06:46;;;;;;;1.10;1.00;;;19.10;84.60;;;;;;5094065;28;20416;-79
2022/08/06 09:09:12;;;;;;;1.73;1.13;;;19.00;84.30;;;;;;5092956;28;20518;-79
2022/08/06 09:11:39;;;;;;;1.00;0.90;;;18.90;84.90;;;;;;5073816;28;20262;-80
2022/08/06 09:14:06;;;;;;;1.23;0.87;;;19.00;84.20;;;;;;5074050;28;20417;-79
2022/08/06 09:16:33;;;;;;;1.20;1.10;;;19.10;84.00;;;;;;5081861;28;20468;-79
2022/08/06 09:19:00;;;;;;;1.23;1.13;;;19.20;83.50;;;;;;5094224;28;20690;-79
2022/08/06 09:21:26;;;;;;;1.00;0.90;;;19.30;83.40;;;;;;5093492;28;20455;-79
2022/08/06 09:23:52;;;;;;;1.03;0.93;;;19.40;83.00;;;;;;5093642;28;20524;-79
2022/08/06 09:26:17;;;;;;;0.90;0.90;;;19.50;83.30;;;;;;5093015;28;21010;-79
2022/08/06 09:28:44;;;;;;;1.40;1.30;;;19.60;82.90;;;;;;5095420;28;20560;-79
2022/08/06 09:31:12;;;;;;;1.03;0.97;;;19.70;82.60;;;;;;5094017;28;20408;-79
2022/08/06 09:33:42;;;;;;;3.37;1.23;;;19.70;82.70;;;;;;5061267;28;20432;-80
2022/08/06 09:36:10;;;;;;;0.90;0.80;;;19.80;83.40;;;;;;5065481;28;20772;-79
2022/08/06 09:38:55;;;;;;;0.80;0.80;;;19.80;83.50;;;;;;5092952;28;20468;-79
2022/08/06 09:41:22;;;;;;;1.30;1.23;;;19.90;83.00;;;;;;5125885;22;20490;-81
2022/08/06 09:43:51;;;;;;;0.83;0.80;;;19.90;82.40;;;;;;5100459;28;20457;-83
2022/08/06 09:46:18;;;;;;;1.20;0.90;;;19.90;82.50;;;;;;5093207;28;20447;-82
2022/08/06 09:48:59;;;;;;;2.40;1.30;;;20.00;82.40;;;;;;5083226;28;20478;-81
2022/08/06 09:51:26;;;;;;;1.00;0.90;;;20.10;82.90;;;;;;5100908;28;20972;-81
2022/08/06 09:53:54;;;;;;;9.40;1.60;;;20.20;82.40;;;;;;5101275;28;20443;-81
2022/08/06 09:56:19;;;;;;;0.80;0.80;;;20.20;82.00;;;;;;5084169;28;20524;-81
2022/08/06 09:58:45;;;;;;;1.10;1.00;;;20.20;81.90;;;;;;5089602;28;20431;-81
2022/08/06 10:01:20;;;;;;;5.63;1.93;;;20.30;81.80;;;;;;5086352;28;20536;-81
2022/08/06 10:03:47;;;;;;;1.20;1.10;;;20.40;80.40;;;;;;5086764;28;20161;-81
2022/08/06 10:06:20;;;;;;;1.00;0.90;;;20.40;79.10;;;;;;5099144;28;20522;-81
2022/08/06 10:08:48;;;;;;;1.10;1.00;;;20.50;79.70;;;;;;5099549;28;20453;-81
2022/08/06 10:11:14;;;;;;;1.00;0.90;;;20.70;79.80;;;;;;5092233;28;20426;-81
2022/08/06 10:13:47;;;;;;;1.10;1.00;;;20.70;77.90;;;;;;5099719;28;20456;-83
2022/08/06 10:16:26;;;;;;;0.90;0.87;;;20.60;77.50;;;;;;5089881;28;20525;-82
2022/08/06 10:18:52;;;;;;;2.00;1.67;;;20.40;78.30;;;;;;5096489;28;20457;-82
2022/08/06 10:21:22;;;;;;;1.63;1.10;;;20.40;78.50;;;;;;5098489;28;20412;-84
2022/08/06 10:23:50;;;;;;;0.90;0.80;;;20.40;77.90;;;;;;5097745;28;20412;-83
2022/08/06 10:26:29;;;;;;;1.30;1.20;;;20.50;79.40;;;;;;5099492;28;20419;-83
2022/08/06 10:29:05;;;;;;;0.80;0.80;;;20.60;78.00;;;;;;5087627;28;20490;-82
2022/08/06 10:31:32;;;;;;;0.80;0.80;;;20.50;76.80;;;;;;5117365;28;20415;-83
2022/08/06 10:34:06;;;;;;;2.80;0.90;;;20.50;76.60;;;;;;5091397;28;20431;-83
2022/08/06 10:36:41;;;;;;;0.93;0.87;;;20.60;76.90;;;;;;5127070;27;20459;-83
2022/08/06 10:39:07;;;;;;;1.00;0.90;;;20.80;77.70;;;;;;5089556;28;20456;-84
2022/08/06 10:41:35;;;;;;;1.10;1.00;;;21.00;76.80;;;;;;5084024;28;20454;-83
2022/08/06 10:44:02;;;;;;;2.30;1.20;;;21.20;77.10;;;;;;5098881;28;20481;-83
2022/08/06 10:46:28;;;;;;;1.23;1.13;;;21.20;76.60;;;;;;5099236;28;20931;-82
2022/08/06 10:48:54;;;;;;;0.97;0.87;;;21.10;76.60;;;;;;5100077;28;20439;-82
2022/08/06 10:51:20;;;;;;;0.87;0.80;;;20.90;77.20;;;;;;5095933;28;20452;-82
2022/08/06 10:53:46;;;;;;;1.90;1.53;;;20.90;77.10;;;;;;5097888;28;20267;-82
2022/08/06 10:56:15;;;;;;;0.80;0.80;;;20.90;77.10;;;;;;5095368;28;20210;-82
2022/08/06 10:58:41;;;;;;;1.40;0.90;;;21.00;78.20;;;;;;5091230;28;20443;-82
2022/08/06 11:01:31;;;;;;;5.37;1.00;;;21.20;77.30;;;;;;5098035;28;20507;-82
2022/08/06 11:04:16;;;;;;;1.40;0.90;;;21.20;75.70;;;;;;5097110;28;20575;-82
2022/08/06 11:07:03;;;;;;;0.90;0.80;;;21.10;75.70;;;;;;5089060;28;20427;-82
2022/08/06 11:10:08;;;;;;;1.40;1.10;;;21.10;74.80;;;;;;5098341;28;20476;-82
2022/08/06 11:12:46;;;;;;;2.27;1.67;;;21.20;74.70;;;;;;5080407;28;20445;-82
2022/08/06 11:15:12;;;;;;;1.10;1.00;;;21.30;74.70;;;;;;5077655;28;20511;-82
2022/08/06 11:17:47;;;;;;;0.80;0.80;;;21.20;74.40;;;;;;5094785;28;20550;-80
2022/08/06 11:20:43;;;;;;;0.90;0.80;;;21.10;76.10;;;;;;5095416;28;20488;-81
2022/08/06 11:23:12;;;;;;;1.00;0.90;;;21.20;75.70;;;;;;5080482;28;20407;-82
2022/08/06 11:25:50;;;;;;;1.20;0.90;;;21.40;75.40;;;;;;5083716;28;20479;-82
2022/08/06 11:28:29;;;;;;;0.90;0.80;;;21.50;75.60;;;;;;5102394;28;20438;-82
2022/08/06 11:30:57;;;;;;;1.03;0.93;;;21.60;74.40;;;;;;5096759;28;20912;-82
2022/08/06 11:33:35;;;;;;;1.10;1.00;;;21.70;75.60;;;;;;5093696;28;20423;-82
2022/08/06 11:36:09;;;;;;;0.90;0.80;;;21.80;73.60;;;;;;5089835;28;20419;-82
2022/08/06 11:38:47;;;;;;;1.20;1.10;;;21.80;74.20;;;;;;5098293;28;20472;-82
2022/08/06 11:41:27;;;;;;;1.00;0.90;;;21.90;74.00;;;;;;5081391;28;20873;-82
2022/08/06 11:43:52;;;;;;;1.40;1.23;;;21.90;73.60;;;;;;5096038;28;20439;-81
2022/08/06 11:46:18;;;;;;;1.10;1.00;;;21.70;73.60;;;;;;5093788;28;21100;-82
2022/08/06 11:48:58;;;;;;;1.10;1.00;;;21.60;74.10;;;;;;5094989;28;20205;-82
2022/08/06 11:51:44;;;;;;;0.90;0.80;;;21.70;74.90;;;;;;5082335;28;20174;-82
2022/08/06 11:54:21;;;;;;;0.83;0.80;;;21.90;75.10;;;;;;5082075;28;20819;-82
2022/08/06 11:56:59;;;;;;;1.53;1.03;;;22.10;73.90;;;;;;5093565;28;20532;-82
2022/08/06 11:59:25;;;;;;;1.07;1.00;;;22.30;75.30;;;;;;5090450;28;20459;-82
2022/08/06 12:01:51;;;;;;;1.00;0.90;;;22.50;73.00;;;;;;5083773;28;20417;-82
2022/08/06 12:04:35;;;;;;;1.03;1.00;;;22.60;73.00;;;;;;5077060;28;20445;-82
2022/08/06 12:07:24;;;;;;;1.00;0.90;;;22.70;71.40;;;;;;5086752;28;20179;-82
2022/08/06 12:10:05;;;;;;;1.00;0.90;;;22.80;73.20;;;;;;5082204;28;20490;-82
2022/08/06 12:12:45;;;;;;;0.87;0.80;;;22.80;72.50;;;;;;5087191;28;20413;-82
2022/08/06 12:15:19;;;;;;;1.10;1.00;;;22.60;71.40;;;;;;5093625;28;20462;-82
2022/08/06 12:17:54;;;;;;;1.00;0.90;;;22.50;72.30;;;;;;5076104;28;20544;-82
2022/08/06 12:20:34;;;;;;;1.10;1.00;;;22.60;72.10;;;;;;5092330;28;20427;-82
2022/08/06 12:23:02;;;;;;;0.80;0.80;;;22.70;72.40;;;;;;5075268;28;20519;-82
2022/08/06 12:25:38;;;;;;;1.27;1.17;;;22.80;71.10;;;;;;5095120;28;20420;-82
2022/08/06 12:28:05;;;;;;;0.97;0.87;;;22.90;72.90;;;;;;5095122;28;20490;-82
2022/08/06 12:30:49;;;;;;;0.90;0.80;;;23.00;70.40;;;;;;5080398;28;20851;-82
2022/08/06 12:33:15;;;;;;;1.10;1.00;;;23.00;71.60;;;;;;5112957;28;20759;-83
2022/08/06 12:36:08;;;;;;;1.07;0.97;;;23.10;72.60;;;;;;5090600;28;20881;-82
2022/08/06 12:38:34;;;;;;;1.40;1.00;;;22.90;71.30;;;;;;5072733;28;20977;-82
2022/08/06 12:41:09;;;;;;;1.10;1.10;;;22.70;71.20;;;;;;5088255;28;20444;-82
2022/08/06 12:43:36;;;;;;;0.90;0.80;;;22.50;72.10;;;;;;5083349;28;20452;-83
2022/08/06 12:46:05;;;;;;;0.80;0.80;;;22.70;73.50;;;;;;5095520;28;20511;-83
2022/08/06 12:48:32;;;;;;;1.23;0.97;;;23.00;73.20;;;;;;5095446;28;20444;-83
2022/08/06 12:51:11;;;;;;;1.03;0.93;;;23.20;71.70;;;;;;5095871;28;20420;-83
2022/08/06 12:53:52;;;;;;;1.00;0.90;;;23.50;70.70;;;;;;5086716;28;20425;-82
2022/08/06 12:56:21;;;;;;;0.90;0.80;;;23.70;70.50;;;;;;5094280;28;20471;-82
2022/08/06 12:58:48;;;;;;;1.00;0.90;;;23.80;70.80;;;;;;5084007;28;20445;-83
2022/08/06 13:01:16;;;;;;;1.10;1.00;;;23.90;70.90;;;;;;5075446;28;20452;-83
2022/08/06 13:03:46;;;;;;;1.00;0.90;;;24.10;69.50;;;;;;5087996;28;20424;-82
2022/08/06 13:06:13;;;;;;;1.00;0.90;;;24.20;69.00;;;;;;5096922;28;20507;-82
2022/08/06 13:08:39;;;;;;;0.90;0.80;;;24.20;67.90;;;;;;5083787;28;20703;-81